createdAt,value
2022-08-11T00:02:29.923Z,52.80
2022-08-11T00:05:02.578Z,52.60
2022-08-11T00:07:31.490Z,52.70
2022-08-11T00:10:00.700Z,52.70
2022-08-11T00:12:29.988Z,52.70
2022-08-11T00:15:01.192Z,53.20
2022-08-11T00:17:33.213Z,53.10
2022-08-11T00:20:12.894Z,52.80
2022-08-11T00:22:46.967Z,52.90
2022-08-11T00:25:17.706Z,53.30
2022-08-11T00:27:48.123Z,53.40
2022-08-11T00:30:17.255Z,53.60
2022-08-11T00:32:58.761Z,53.30
2022-08-11T00:35:53.848Z,53.40
2022-08-11T00:38:25.971Z,53.70
2022-08-11T00:41:01.379Z,53.60
2022-08-11T00:43:48.715Z,53.70
2022-08-11T00:46:29.712Z,54.00
2022-08-11T00:49:14.552Z,54.00
2022-08-11T00:52:05.034Z,53.80
2022-08-11T00:55:10.421Z,54.10
2022-08-11T00:58:09.426Z,53.80
2022-08-11T01:00:59.738Z,54.10
2022-08-11T01:03:49.023Z,54.10
2022-08-11T01:06:53.383Z,54.10
2022-08-11T01:09:37.570Z,54.10
2022-08-11T01:12:27.772Z,54.30
2022-08-11T01:15:40.759Z,54.20
2022-08-11T01:18:54.830Z,54.30
2022-08-11T01:22:09.819Z,54.50
2022-08-11T01:25:07.815Z,54.60
2022-08-11T01:28:23.003Z,54.60
2022-08-11T01:31:32.522Z,54.90
2022-08-11T01:34:40.002Z,54.20
2022-08-11T01:38:00.206Z,54.80
2022-08-11T01:41:01.435Z,54.20
2022-08-11T01:44:23.313Z,54.60
2022-08-11T01:46:57.614Z,54.80
2022-08-11T01:50:07.175Z,54.80
2022-08-11T01:52:33.362Z,54.80
2022-08-11T01:55:15.908Z,54.80
2022-08-11T01:57:51.103Z,54.80
2022-08-11T02:00:22.460Z,55.00
2022-08-11T02:02:59.174Z,54.90
2022-08-11T02:05:48.481Z,55.00
2022-08-11T02:08:33.504Z,54.90
2022-08-11T02:11:35.057Z,54.80
2022-08-11T02:14:16.217Z,55.10
2022-08-11T02:16:54.527Z,54.70
2022-08-11T02:19:46.050Z,55.10
2022-08-11T02:22:39.978Z,54.90
2022-08-11T02:25:11.695Z,54.90
2022-08-11T02:27:54.240Z,55.10
2022-08-11T02:30:29.543Z,55.00
2022-08-11T02:33:23.720Z,55.10
2022-08-11T02:36:04.647Z,55.00
2022-08-11T02:38:50.492Z,55.00
2022-08-11T02:41:52.337Z,55.20
2022-08-11T02:44:33.974Z,55.20
2022-08-11T02:47:10.584Z,55.50
2022-08-11T02:50:06.278Z,55.20
2022-08-11T02:52:42.916Z,55.20
2022-08-11T02:55:56.313Z,55.20
2022-08-11T02:58:15.796Z,55.20
2022-08-11T03:00:51.227Z,55.30
2022-08-11T03:03:26.837Z,55.30
2022-08-11T03:06:07.208Z,55.30
2022-08-11T03:08:52.623Z,55.40
2022-08-11T03:11:50.683Z,55.40
2022-08-11T03:14:43.969Z,55.50
2022-08-11T03:17:26.385Z,55.50
2022-08-11T03:20:07.092Z,55.50
2022-08-11T03:22:41.668Z,55.60
2022-08-11T03:25:30.438Z,55.60
2022-08-11T03:28:06.913Z,55.70
2022-08-11T03:30:44.754Z,55.80
2022-08-11T03:33:41.472Z,55.80
2022-08-11T03:36:17.794Z,55.80
2022-08-11T03:38:57.930Z,55.90
2022-08-11T03:42:03.865Z,55.90
2022-08-11T03:44:56.061Z,55.90
2022-08-11T03:47:41.233Z,56.00
2022-08-11T03:50:34.655Z,56.00
2022-08-11T03:53:17.485Z,56.10
2022-08-11T03:56:11.807Z,56.00
2022-08-11T03:59:08.101Z,56.00
2022-08-11T04:02:09.855Z,56.00
2022-08-11T04:05:11.354Z,56.00
2022-08-11T04:08:42.770Z,56.00
2022-08-11T04:11:29.843Z,56.10
2022-08-11T04:15:03.656Z,56.10
2022-08-11T04:18:05.548Z,56.00
2022-08-11T04:20:52.940Z,56.00
2022-08-11T04:24:34.812Z,56.00
2022-08-11T04:27:36.907Z,56.10
2022-08-11T04:30:12.261Z,56.20
2022-08-11T04:33:19.846Z,56.10
2022-08-11T04:35:57.101Z,56.30
2022-08-11T04:38:46.244Z,56.20
2022-08-11T04:42:11.462Z,56.30
2022-08-11T04:45:34.577Z,56.50
2022-08-11T04:48:41.019Z,56.40
2022-08-11T04:52:02.431Z,56.40
2022-08-11T04:55:12.244Z,56.50
2022-08-11T04:58:10.546Z,56.40
2022-08-11T05:01:13.830Z,56.50
2022-08-11T05:04:30.578Z,56.30
2022-08-11T05:07:41.406Z,56.70
2022-08-11T05:10:22.810Z,56.60
2022-08-11T05:12:56.704Z,56.80
2022-08-11T05:16:08.708Z,56.80
2022-08-11T05:19:04.434Z,56.80
2022-08-11T05:21:52.674Z,56.90
2022-08-11T05:24:41.128Z,57.00
2022-08-11T05:27:29.106Z,57.10
2022-08-11T05:30:20.166Z,57.20
2022-08-11T05:33:15.967Z,57.20
2022-08-11T05:36:01.224Z,57.30
2022-08-11T05:38:52.610Z,57.30
2022-08-11T05:41:40.740Z,57.40
2022-08-11T05:44:28.848Z,57.40
2022-08-11T05:47:15.995Z,57.50
2022-08-11T05:50:08.752Z,57.40
2022-08-11T05:53:05.040Z,57.40
2022-08-11T05:56:03.282Z,57.30
2022-08-11T05:58:42.698Z,57.30
2022-08-11T06:01:13.168Z,57.80
2022-08-11T06:03:59.846Z,57.20
2022-08-11T06:06:29.450Z,57.20
2022-08-11T06:09:00.813Z,56.80
2022-08-11T06:11:43.916Z,57.00
2022-08-11T06:14:15.715Z,56.50
2022-08-11T06:16:48.268Z,56.70
2022-08-11T06:19:17.141Z,56.60
2022-08-11T06:21:48.989Z,56.60
2022-08-11T06:24:19.680Z,56.40
2022-08-11T06:27:12.801Z,56.40
2022-08-11T06:29:54.812Z,56.40
2022-08-11T06:32:27.165Z,56.50
2022-08-11T06:35:15.019Z,56.60
2022-08-11T06:37:49.059Z,56.40
2022-08-11T06:40:35.101Z,56.40
2022-08-11T06:43:11.847Z,56.40
2022-08-11T06:45:50.240Z,56.00
2022-08-11T06:48:22.467Z,55.90
2022-08-11T06:51:15.001Z,56.00
2022-08-11T06:53:56.224Z,56.20
2022-08-11T06:57:18.597Z,56.10
2022-08-11T07:00:01.343Z,56.10
2022-08-11T07:02:34.926Z,56.70
2022-08-11T07:05:08.257Z,56.10
2022-08-11T07:08:43.707Z,56.00
2022-08-11T07:11:45.453Z,56.30
2022-08-11T07:14:38.830Z,56.50
2022-08-11T07:17:12.502Z,56.10
2022-08-11T07:20:02.129Z,55.80
2022-08-11T07:22:51.268Z,56.20
2022-08-11T07:25:37.913Z,56.00
2022-08-11T07:28:30.852Z,56.00
2022-08-11T07:31:08.313Z,56.20
2022-08-11T07:34:08.573Z,56.00
2022-08-11T07:36:35.376Z,56.10
2022-08-11T07:39:04.974Z,56.10
2022-08-11T07:41:36.343Z,56.20
2022-08-11T07:44:10.029Z,56.30
2022-08-11T07:47:00.935Z,56.30
2022-08-11T07:49:49.887Z,56.20
2022-08-11T07:52:28.170Z,56.40
2022-08-11T07:54:57.675Z,57.40
2022-08-11T07:58:14.108Z,60.50
2022-08-11T08:00:55.901Z,59.40
2022-08-11T08:03:54.824Z,60.70
2022-08-11T08:06:41.570Z,60.80
2022-08-11T08:09:27.838Z,60.50
2022-08-11T08:12:14.266Z,61.80
2022-08-11T08:15:01.241Z,62.70
2022-08-11T08:18:08.513Z,61.90
2022-08-11T08:20:40.379Z,62.00
2022-08-11T08:23:09.670Z,61.40
2022-08-11T08:25:41.342Z,61.00
2022-08-11T08:28:14.638Z,60.10
2022-08-11T08:30:51.188Z,60.30
2022-08-11T08:33:22.491Z,59.90
2022-08-11T08:36:11.813Z,59.70
2022-08-11T08:38:42.475Z,59.10
2022-08-11T08:41:13.287Z,58.90
2022-08-11T08:43:49.639Z,58.40
2022-08-11T08:46:29.174Z,58.30
2022-08-11T08:49:01.451Z,58.50
2022-08-11T08:52:02.527Z,58.10
2022-08-11T08:54:37.555Z,57.60
2022-08-11T08:57:07.846Z,56.50
2022-08-11T08:59:48.365Z,56.50
2022-08-11T09:02:20.593Z,54.60
2022-08-11T09:05:03.966Z,55.20
2022-08-11T09:07:38.797Z,54.60
2022-08-11T09:10:10.507Z,53.90
2022-08-11T09:12:41.211Z,53.90
2022-08-11T09:15:11.859Z,52.00
2022-08-11T09:17:44.827Z,52.20
2022-08-11T09:20:16.125Z,53.40
2022-08-11T09:26:14.116Z,50.40
2022-08-11T09:28:44.362Z,51.80
2022-08-11T09:31:14.177Z,52.20
2022-08-11T09:33:43.837Z,50.30
2022-08-11T09:36:32.118Z,49.30
2022-08-11T09:39:21.996Z,49.00
2022-08-11T09:42:00.806Z,49.10
2022-08-11T09:44:48.832Z,48.40
2022-08-11T09:47:24.619Z,48.90
2022-08-11T09:49:56.285Z,47.90
2022-08-11T09:52:26.118Z,48.50
2022-08-11T09:54:56.739Z,47.30
2022-08-11T09:57:43.966Z,46.20
2022-08-11T10:00:15.288Z,45.80
2022-08-11T10:02:47.292Z,46.90
2022-08-11T10:05:39.547Z,47.20
2022-08-11T10:08:10.320Z,46.60
2022-08-11T10:10:41.392Z,45.80
2022-08-11T10:14:29.332Z,45.20
2022-08-11T10:16:15.926Z,45.40
2022-08-11T10:18:53.182Z,46.40
2022-08-11T10:21:29.303Z,45.00
2022-08-11T10:24:17.895Z,44.40
2022-08-11T10:26:56.851Z,45.60
2022-08-11T10:29:45.321Z,44.50
2022-08-11T10:32:57.797Z,44.00
2022-08-11T10:35:27.641Z,44.10
2022-08-11T10:38:08.948Z,44.30
2022-08-11T10:40:40.805Z,44.10
2022-08-11T10:43:14.290Z,43.70
2022-08-11T10:46:05.777Z,44.40
2022-08-11T10:48:39.947Z,44.60
2022-08-11T10:51:14.966Z,43.60
2022-08-11T10:54:02.906Z,43.30
2022-08-11T10:56:50.998Z,43.50
2022-08-11T10:59:22.303Z,43.20
2022-08-11T11:01:51.655Z,42.20
2022-08-11T11:04:25.396Z,42.10
2022-08-11T11:07:00.230Z,41.80
2022-08-11T11:09:32.689Z,42.30
2022-08-11T11:12:23.385Z,42.60
2022-08-11T11:15:16.117Z,43.20
2022-08-11T11:18:01.694Z,43.20
2022-08-11T11:20:37.730Z,42.60
2022-08-11T11:23:12.537Z,43.10
2022-08-11T11:26:07.468Z,42.40
2022-08-11T11:29:16.467Z,41.60
2022-08-11T11:32:25.718Z,41.40
2022-08-11T11:35:09.154Z,41.10
2022-08-11T11:37:38.532Z,41.20
2022-08-11T11:40:11.733Z,41.30
2022-08-11T11:42:41.846Z,41.50
2022-08-11T11:45:22.040Z,41.00
2022-08-11T11:47:55.565Z,41.60
2022-08-11T11:50:32.937Z,41.30
2022-08-11T11:53:03.268Z,41.00
2022-08-11T11:55:32.466Z,40.80
2022-08-11T11:58:20.263Z,41.50
2022-08-11T12:01:09.873Z,40.50
2022-08-11T12:03:40.863Z,41.00
2022-08-11T12:06:12.269Z,41.10
2022-08-11T12:08:41.267Z,40.40
2022-08-11T12:11:30.179Z,39.80
2022-08-11T12:14:01.368Z,40.20
2022-08-11T12:16:35.488Z,40.30
2022-08-11T12:19:08.952Z,40.30
2022-08-11T12:21:38.636Z,39.60
2022-08-11T12:24:29.129Z,40.40
2022-08-11T12:27:17.641Z,40.10
2022-08-11T12:29:54.874Z,39.00
2022-08-11T12:32:26.101Z,39.80
2022-08-11T12:34:58.252Z,39.40
2022-08-11T12:37:31.586Z,38.80
2022-08-11T12:40:43.131Z,38.90
2022-08-11T12:43:37.195Z,38.90
2022-08-11T12:46:10.226Z,39.20
2022-08-11T12:49:02.919Z,39.00
2022-08-11T12:52:06.816Z,38.80
2022-08-11T12:54:59.126Z,38.50
2022-08-11T12:57:48.880Z,38.90
2022-08-11T13:00:36.672Z,39.00
2022-08-11T13:03:26.426Z,39.50
2022-08-11T13:05:57.573Z,38.70
2022-08-11T13:08:29.639Z,38.40
2022-08-11T13:11:17.986Z,38.20
2022-08-11T13:13:55.353Z,37.70
2022-08-11T13:16:27.786Z,37.80
2022-08-11T13:18:57.645Z,37.70
2022-08-11T13:21:27.692Z,37.40
2022-08-11T13:24:00.562Z,37.40
2022-08-11T13:26:46.987Z,37.40
2022-08-11T13:29:22.656Z,37.60
2022-08-11T13:31:53.016Z,37.30
2022-08-11T13:34:22.866Z,36.50
2022-08-11T13:36:53.218Z,36.80
2022-08-11T13:39:25.887Z,36.90
2022-08-11T13:41:57.043Z,36.80
2022-08-11T13:44:28.388Z,36.30
2022-08-11T13:47:01.738Z,36.70
2022-08-11T13:49:32.102Z,37.40
2022-08-11T13:52:01.115Z,37.40
2022-08-11T13:54:34.245Z,37.10
2022-08-11T13:57:09.276Z,37.20
2022-08-11T13:59:52.342Z,36.70
2022-08-11T14:02:30.706Z,37.00
2022-08-11T14:05:02.751Z,36.70
2022-08-11T14:07:36.895Z,36.90
2022-08-11T14:10:08.805Z,37.20
2022-08-11T14:12:56.937Z,37.00
2022-08-11T14:15:29.184Z,37.20
2022-08-11T14:18:01.795Z,36.90
2022-08-11T14:20:53.952Z,36.70
2022-08-11T14:23:27.735Z,36.40
2022-08-11T14:26:16.181Z,36.50
2022-08-11T14:28:45.498Z,36.50
2022-08-11T14:31:15.948Z,36.10
2022-08-11T14:34:01.074Z,36.50
2022-08-11T14:36:35.074Z,36.60
2022-08-11T14:39:07.082Z,36.70
2022-08-11T14:42:07.478Z,36.70
2022-08-11T14:45:00.704Z,36.60
2022-08-11T14:47:31.790Z,36.90
2022-08-11T14:50:11.887Z,36.10
2022-08-11T14:52:45.996Z,36.20
2022-08-11T14:55:32.601Z,36.30
2022-08-11T14:58:03.850Z,36.40
2022-08-11T15:00:34.381Z,35.90
2022-08-11T15:03:11.252Z,36.10
2022-08-11T15:05:56.616Z,36.20
2022-08-11T15:08:49.011Z,36.10
2022-08-11T15:11:37.332Z,35.70
2022-08-11T15:14:09.413Z,36.10
2022-08-11T15:16:59.445Z,36.50
2022-08-11T15:19:40.507Z,36.30
2022-08-11T15:22:28.427Z,36.20
2022-08-11T15:24:58.729Z,36.50
2022-08-11T15:27:47.719Z,36.20
2022-08-11T15:30:35.569Z,36.70
2022-08-11T15:33:25.745Z,36.40
2022-08-11T15:36:12.829Z,36.00
2022-08-11T15:38:45.981Z,35.80
2022-08-11T15:41:36.521Z,35.40
2022-08-11T15:44:51.316Z,35.50
2022-08-11T15:47:21.601Z,35.40
2022-08-11T15:50:10.388Z,35.10
2022-08-11T15:52:49.865Z,35.40
2022-08-11T15:55:19.299Z,35.30
2022-08-11T15:58:08.325Z,35.10
2022-08-11T16:00:57.989Z,35.40
2022-08-11T16:04:08.191Z,35.30
2022-08-11T16:06:47.562Z,35.30
2022-08-11T16:09:21.780Z,35.20
2022-08-11T16:11:52.654Z,35.60
2022-08-11T16:14:39.763Z,35.50
2022-08-11T16:17:10.451Z,34.50
2022-08-11T16:19:42.502Z,35.10
2022-08-11T16:22:14.125Z,34.40
2022-08-11T16:27:02.080Z,34.80
2022-08-11T16:27:38.395Z,34.50
2022-08-11T16:30:09.308Z,34.20
2022-08-11T16:32:41.654Z,34.40
2022-08-11T16:35:32.288Z,34.40
2022-08-11T16:38:20.041Z,34.50
2022-08-11T16:40:52.462Z,34.30
2022-08-11T16:43:41.938Z,34.90
2022-08-11T16:46:28.951Z,34.30
2022-08-11T16:48:59.322Z,34.70
2022-08-11T16:51:29.086Z,34.40
2022-08-11T16:54:05.097Z,34.10
2022-08-11T16:56:38.677Z,33.70
2022-08-11T16:59:17.029Z,34.10
2022-08-11T17:01:53.249Z,34.10
2022-08-11T17:04:46.748Z,33.90
2022-08-11T17:07:41.909Z,35.00
2022-08-11T17:10:50.342Z,34.00
2022-08-11T17:13:27.203Z,34.00
2022-08-11T17:16:12.748Z,34.00
2022-08-11T17:18:47.163Z,34.20
2022-08-11T17:21:22.446Z,34.10
2022-08-11T17:23:55.296Z,34.20
2022-08-11T17:26:49.294Z,34.10
2022-08-11T17:29:20.055Z,34.30
2022-08-11T17:32:07.145Z,34.20
2022-08-11T17:34:53.901Z,34.00
2022-08-11T17:37:24.468Z,34.10
2022-08-11T17:39:57.071Z,34.00
2022-08-11T17:42:46.084Z,34.10
2022-08-11T17:45:32.831Z,34.10
2022-08-11T17:48:20.930Z,34.20
2022-08-11T17:50:50.616Z,34.20
2022-08-11T17:53:37.301Z,34.50
2022-08-11T17:56:26.102Z,34.50
2022-08-11T17:59:12.502Z,34.30
2022-08-11T18:01:44.405Z,34.40
2022-08-11T18:04:14.164Z,34.60
2022-08-11T18:06:45.863Z,35.40
2022-08-11T18:09:35.799Z,35.90
2022-08-11T18:12:26.531Z,36.40
2022-08-11T18:15:15.855Z,36.50
2022-08-11T18:18:02.827Z,36.80
2022-08-11T18:20:49.675Z,37.10
2022-08-11T18:23:40.482Z,37.60
2022-08-11T18:26:38.306Z,37.70
2022-08-11T18:29:27.067Z,36.70
2022-08-11T18:32:20.785Z,35.90
2022-08-11T18:35:11.200Z,36.00
2022-08-11T18:38:04.465Z,36.80
2022-08-11T18:40:54.270Z,36.90
2022-08-11T18:43:43.591Z,37.40
2022-08-11T18:46:34.275Z,38.10
2022-08-11T18:49:34.271Z,38.40
2022-08-11T18:52:35.967Z,38.60
2022-08-11T18:55:26.024Z,38.50
2022-08-11T18:58:13.514Z,38.90
2022-08-11T19:01:03.389Z,39.00
2022-08-11T19:03:52.415Z,39.20
2022-08-11T19:06:41.355Z,39.30
2022-08-11T19:09:31.617Z,39.30
2022-08-11T19:12:19.634Z,39.60
2022-08-11T19:15:09.175Z,40.10
2022-08-11T19:17:57.577Z,40.20
2022-08-11T19:20:48.660Z,40.30
2022-08-11T19:23:39.390Z,40.60
2022-08-11T19:26:26.432Z,40.80
2022-08-11T19:30:08.040Z,40.80
2022-08-11T19:32:21.613Z,41.10
2022-08-11T19:35:09.128Z,41.20
2022-08-11T19:37:58.866Z,41.40
2022-08-11T19:40:45.743Z,41.40
2022-08-11T19:43:32.485Z,41.60
2022-08-11T19:46:19.856Z,41.60
2022-08-11T19:49:09.351Z,41.60
2022-08-11T19:51:55.998Z,41.80
2022-08-11T19:54:46.009Z,41.80
2022-08-11T19:57:37.326Z,41.90
2022-08-11T20:00:30.278Z,42.00
2022-08-11T20:03:18.653Z,42.10
2022-08-11T20:06:05.760Z,42.20
2022-08-11T20:08:57.795Z,42.20
2022-08-11T20:11:49.056Z,42.30
2022-08-11T20:14:36.083Z,42.40
2022-08-11T20:17:23.200Z,42.60
2022-08-11T20:20:10.042Z,42.70
2022-08-11T20:22:57.076Z,42.80
2022-08-11T20:25:44.460Z,42.90
2022-08-11T20:28:32.861Z,42.80
2022-08-11T20:31:18.942Z,42.90
2022-08-11T20:34:05.438Z,42.90
2022-08-11T20:36:54.891Z,42.90
2022-08-11T20:39:43.258Z,43.10
2022-08-11T20:42:31.191Z,43.30
2022-08-11T20:45:23.737Z,43.20
2022-08-11T20:48:15.056Z,43.30
2022-08-11T20:51:06.484Z,43.50
2022-08-11T20:53:56.544Z,43.50
2022-08-11T20:56:45.420Z,43.70
2022-08-11T20:59:33.299Z,43.80
2022-08-11T21:02:37.582Z,43.90
2022-08-11T21:06:08.695Z,44.20
2022-08-11T21:08:31.113Z,44.40
2022-08-11T21:14:30.372Z,44.90
2022-08-11T21:17:27.402Z,45.20
2022-08-11T21:20:21.050Z,45.40
2022-08-11T21:23:23.900Z,45.40
2022-08-11T21:26:15.719Z,45.60
2022-08-11T21:29:02.512Z,45.50
2022-08-11T21:31:51.054Z,45.50
2022-08-11T21:34:40.972Z,46.00
2022-08-11T21:37:31.033Z,45.90
2022-08-11T21:40:19.222Z,45.90
2022-08-11T21:43:07.315Z,46.40
2022-08-11T21:45:56.049Z,46.10
2022-08-11T21:48:45.131Z,46.50
2022-08-11T21:51:31.188Z,46.50
2022-08-11T21:54:19.363Z,46.80
2022-08-11T21:57:06.216Z,46.60
2022-08-11T22:00:00.683Z,46.70
2022-08-11T22:02:47.563Z,46.90
2022-08-11T22:05:39.796Z,46.80
2022-08-11T22:08:26.698Z,47.20
2022-08-11T22:11:14.235Z,47.10
2022-08-11T22:14:05.946Z,47.20
2022-08-11T22:16:53.697Z,47.50
2022-08-11T22:19:41.885Z,47.00
2022-08-11T22:22:29.282Z,47.20
2022-08-11T22:25:18.499Z,47.90
2022-08-11T22:28:06.478Z,47.60
2022-08-11T22:30:52.653Z,47.90
2022-08-11T22:34:00.717Z,48.00
2022-08-11T22:36:46.832Z,47.70
2022-08-11T22:39:35.429Z,48.10
2022-08-11T22:42:24.100Z,48.30
2022-08-11T22:45:21.917Z,48.20
2022-08-11T22:48:09.368Z,48.50
2022-08-11T22:50:57.353Z,48.50
2022-08-11T22:53:57.456Z,48.40
2022-08-11T22:56:45.665Z,48.80
2022-08-11T22:59:33.252Z,48.50
2022-08-11T23:02:21.002Z,49.20
2022-08-11T23:05:08.413Z,48.60
2022-08-11T23:07:55.134Z,49.00
2022-08-11T23:10:41.656Z,49.10
2022-08-11T23:13:28.309Z,49.20
2022-08-11T23:16:14.416Z,49.20
2022-08-11T23:19:02.141Z,49.10
2022-08-11T23:21:49.802Z,49.30
2022-08-11T23:24:36.573Z,49.20
2022-08-11T23:27:24.624Z,49.10
2022-08-11T23:30:13.743Z,49.30
2022-08-11T23:33:04.983Z,49.50
2022-08-11T23:35:55.410Z,49.50
2022-08-11T23:38:42.506Z,49.70
2022-08-11T23:41:29.487Z,50.00
2022-08-11T23:44:15.453Z,49.90
2022-08-11T23:47:02.704Z,49.70
2022-08-11T23:49:48.825Z,49.90
2022-08-11T23:52:39.450Z,49.90
2022-08-11T23:55:26.332Z,50.20
2022-08-11T23:58:12.382Z,50.10
